createdAt,value
2022-12-07T00:01:21.853Z,0.41
2022-12-07T00:03:50.578Z,0.32
2022-12-07T00:06:18.740Z,0.31
2022-12-07T00:08:46.176Z,0.19
2022-12-07T00:11:21.436Z,0.31
2022-12-07T00:13:52.386Z,0.27
2022-12-07T00:16:20.994Z,0.28
2022-12-07T00:18:47.746Z,0.07
2022-12-07T00:21:19.241Z,0.26
2022-12-07T00:23:47.387Z,0.29
2022-12-07T00:26:17.690Z,0.35
2022-12-07T00:28:49.098Z,0.33
2022-12-07T00:31:17.603Z,0.31
2022-12-07T00:33:44.812Z,0.42
2022-12-07T00:36:26.111Z,0.31
2022-12-07T00:38:53.763Z,0.21
2022-12-07T00:41:23.715Z,0.21
2022-12-07T00:43:51.023Z,0.22
2022-12-07T00:46:18.675Z,0.31
2022-12-07T00:48:46.534Z,0.39
2022-12-07T00:51:14.868Z,0.31
2022-12-07T00:53:42.522Z,0.35
2022-12-07T00:56:12.096Z,0.41
2022-12-07T00:58:38.691Z,0.48
2022-12-07T01:01:07.704Z,0.44
2022-12-07T01:03:34.800Z,0.45
2022-12-07T01:06:02.425Z,0.47
2022-12-07T01:08:29.957Z,0.51
2022-12-07T01:11:08.959Z,0.02
2022-12-07T01:13:36.624Z,0.38
2022-12-07T01:16:06.628Z,0.51
2022-12-07T01:18:36.896Z,0.30
2022-12-07T01:21:11.826Z,0.49
2022-12-07T01:23:38.551Z,0.30
2022-12-07T01:26:08.692Z,0.48
2022-12-07T01:28:35.436Z,0.42
2022-12-07T01:31:19.732Z,0.36
2022-12-07T01:33:50.252Z,0.42
2022-12-07T01:36:21.240Z,0.49
2022-12-07T01:38:50.129Z,0.52
2022-12-07T01:41:16.889Z,0.25
2022-12-07T01:44:10.180Z,0.22
2022-12-07T01:46:37.576Z,0.07
2022-12-07T01:49:11.735Z,0.06
2022-12-07T01:51:41.759Z,-0.22
2022-12-07T01:54:11.871Z,-0.22
2022-12-07T01:56:41.405Z,-0.31
2022-12-07T01:59:08.908Z,-0.55
2022-12-07T02:01:35.597Z,-0.38
2022-12-07T02:04:02.915Z,-0.78
2022-12-07T02:06:30.258Z,-0.77
2022-12-07T02:08:56.851Z,-0.80
2022-12-07T02:11:23.816Z,-1.03
2022-12-07T02:13:50.640Z,-0.68
2022-12-07T02:16:27.573Z,-0.40
2022-12-07T02:19:28.389Z,-0.26
2022-12-07T02:22:08.534Z,-0.15
2022-12-07T02:24:49.510Z,-0.12
2022-12-07T02:27:16.118Z,-0.03
2022-12-07T02:29:55.302Z,-0.25
2022-12-07T02:32:44.361Z,-0.15
2022-12-07T02:35:20.983Z,-0.26
2022-12-07T02:38:09.067Z,-0.19
2022-12-07T02:40:55.340Z,-0.36
2022-12-07T02:43:34.630Z,-0.32
2022-12-07T02:46:17.917Z,-0.22
2022-12-07T02:48:46.405Z,-0.11
2022-12-07T02:51:13.044Z,-0.35
2022-12-07T02:53:43.012Z,0.04
2022-12-07T02:56:18.160Z,0.05
2022-12-07T02:59:22.308Z,0.05
2022-12-07T03:01:49.197Z,0.09
2022-12-07T03:04:44.333Z,-0.02
2022-12-07T03:07:25.866Z,-0.13
2022-12-07T03:10:06.814Z,-0.13
2022-12-07T03:12:43.377Z,-0.19
2022-12-07T03:15:17.579Z,-0.04
2022-12-07T03:17:46.487Z,-0.23
2022-12-07T03:20:17.019Z,-0.05
2022-12-07T03:22:46.476Z,-0.16
2022-12-07T03:25:16.502Z,-0.30
2022-12-07T03:28:09.772Z,-0.07
2022-12-07T03:30:52.025Z,-0.12
2022-12-07T03:33:23.863Z,-0.28
2022-12-07T03:35:59.702Z,-0.35
2022-12-07T03:38:33.659Z,-0.57
2022-12-07T03:41:07.059Z,-0.23
2022-12-07T03:43:33.974Z,-0.39
2022-12-07T03:46:22.246Z,-0.19
2022-12-07T03:48:54.810Z,-0.19
2022-12-07T03:51:27.160Z,-0.23
2022-12-07T03:54:03.132Z,-0.42
2022-12-07T03:56:30.723Z,-0.23
2022-12-07T03:58:57.297Z,-0.33
2022-12-07T04:01:24.766Z,-0.29
2022-12-07T04:03:51.413Z,-0.36
2022-12-07T04:06:18.217Z,-0.53
2022-12-07T04:08:44.870Z,-0.52
2022-12-07T04:11:11.543Z,-0.82
2022-12-07T04:13:59.702Z,-1.05
2022-12-07T04:16:26.338Z,-1.53
2022-12-07T04:18:53.040Z,-1.24
2022-12-07T04:21:19.696Z,-1.16
2022-12-07T04:23:46.279Z,-1.24
2022-12-07T04:26:12.884Z,-1.01
2022-12-07T04:28:39.467Z,-1.02
2022-12-07T04:31:06.102Z,-0.80
2022-12-07T04:33:32.748Z,-0.96
2022-12-07T04:35:59.329Z,-0.98
2022-12-07T04:38:25.929Z,-1.14
2022-12-07T04:40:52.491Z,-1.20
2022-12-07T04:43:19.089Z,-1.05
2022-12-07T04:45:49.472Z,-0.80
2022-12-07T04:48:16.128Z,-0.74
2022-12-07T04:50:46.162Z,-0.72
2022-12-07T04:53:13.040Z,-0.53
2022-12-07T04:55:39.660Z,-0.74
2022-12-07T04:58:06.221Z,-0.72
2022-12-07T05:00:32.859Z,-0.72
2022-12-07T05:02:59.541Z,-0.82
2022-12-07T05:05:26.154Z,-0.64
2022-12-07T05:07:52.806Z,-0.45
2022-12-07T05:10:19.583Z,-0.34
2022-12-07T05:12:46.872Z,-0.52
2022-12-07T05:15:14.756Z,-0.48
2022-12-07T05:17:41.503Z,-0.63
2022-12-07T05:20:09.420Z,-0.58
2022-12-07T05:22:36.748Z,-0.67
2022-12-07T05:25:03.448Z,-0.49
2022-12-07T05:27:30.014Z,-0.44
2022-12-07T05:29:56.607Z,-0.31
2022-12-07T05:32:23.244Z,-0.30
2022-12-07T05:34:49.820Z,-0.46
2022-12-07T05:37:16.408Z,-0.33
2022-12-07T05:39:43.838Z,-0.36
2022-12-07T05:42:15.003Z,-0.19
2022-12-07T05:44:43.104Z,-0.48
2022-12-07T05:47:10.247Z,-0.14
2022-12-07T05:49:37.062Z,-0.19
2022-12-07T05:52:04.177Z,-0.29
2022-12-07T05:54:31.135Z,-0.22
2022-12-07T05:56:57.828Z,-0.33
2022-12-07T05:59:24.879Z,-0.53
2022-12-07T06:01:53.795Z,-0.46
2022-12-07T06:04:21.338Z,-0.13
2022-12-07T06:06:50.908Z,-0.20
2022-12-07T06:09:19.243Z,-0.12
2022-12-07T06:12:04.423Z,-0.25
2022-12-07T06:14:31.060Z,-0.59
2022-12-07T06:16:57.972Z,-0.32
2022-12-07T06:19:27.556Z,-0.21
2022-12-07T06:21:54.723Z,-0.02
2022-12-07T06:24:21.570Z,0.01
2022-12-07T06:26:48.176Z,-0.22
2022-12-07T06:29:15.477Z,-0.09
2022-12-07T06:31:42.564Z,-0.18
2022-12-07T06:34:19.076Z,-0.18
2022-12-07T06:36:46.715Z,-0.62
2022-12-07T06:39:13.289Z,-0.41
2022-12-07T06:41:40.404Z,-0.17
2022-12-07T06:44:07.863Z,-0.16
2022-12-07T06:46:36.267Z,-0.55
2022-12-07T06:49:04.291Z,-0.13
2022-12-07T06:51:31.196Z,-0.13
2022-12-07T06:53:58.032Z,-0.32
2022-12-07T06:56:24.707Z,-0.22
2022-12-07T06:58:51.354Z,-0.51
2022-12-07T07:01:19.344Z,-0.18
2022-12-07T07:03:47.085Z,-0.46
2022-12-07T07:06:14.444Z,-0.52
2022-12-07T07:08:41.332Z,-0.31
2022-12-07T07:11:09.134Z,-0.51
2022-12-07T07:13:36.510Z,-0.27
2022-12-07T07:16:03.154Z,-0.45
2022-12-07T07:18:30.304Z,-0.26
2022-12-07T07:20:57.166Z,-0.31
2022-12-07T07:23:24.091Z,-0.52
2022-12-07T07:25:50.754Z,-0.54
2022-12-07T07:28:20.269Z,-0.57
2022-12-07T07:30:46.923Z,-0.50
2022-12-07T07:33:13.885Z,-0.66
2022-12-07T07:35:40.837Z,-0.36
2022-12-07T07:38:07.953Z,-0.39
2022-12-07T07:40:34.877Z,-0.66
2022-12-07T07:43:01.666Z,-0.39
2022-12-07T07:45:28.879Z,-0.36
2022-12-07T07:47:55.724Z,-0.56
2022-12-07T07:50:22.602Z,-0.37
2022-12-07T07:52:49.199Z,-0.33
2022-12-07T07:55:18.133Z,-0.46
2022-12-07T07:57:48.306Z,-0.27
2022-12-07T08:00:18.474Z,-0.46
2022-12-07T08:02:45.165Z,-0.68
2022-12-07T08:05:13.023Z,-0.32
2022-12-07T08:07:40.235Z,-0.46
2022-12-07T08:10:08.570Z,-0.21
2022-12-07T08:12:59.677Z,-0.15
2022-12-07T08:15:30.677Z,-0.17
2022-12-07T08:17:57.363Z,-0.44
2022-12-07T08:20:24.028Z,-0.39
2022-12-07T08:22:50.742Z,-0.37
2022-12-07T08:25:17.437Z,-0.35
2022-12-07T08:27:44.265Z,-0.50
2022-12-07T08:30:11.080Z,-0.27
2022-12-07T08:32:37.907Z,-0.20
2022-12-07T08:35:04.808Z,-0.38
2022-12-07T08:37:32.777Z,-0.22
2022-12-07T08:39:59.664Z,-0.17
2022-12-07T08:42:30.518Z,-0.13
2022-12-07T08:44:58.164Z,-0.15
2022-12-07T08:47:25.849Z,-0.14
2022-12-07T08:49:54.172Z,-0.47
2022-12-07T08:52:20.847Z,-0.32
2022-12-07T08:54:47.988Z,-0.33
2022-12-07T08:57:14.639Z,-0.23
2022-12-07T08:59:41.334Z,-0.19
2022-12-07T09:02:08.141Z,-0.24
2022-12-07T09:04:35.022Z,-0.45
2022-12-07T09:07:01.740Z,-0.32
2022-12-07T09:09:28.479Z,-0.35
2022-12-07T09:11:55.171Z,-0.36
2022-12-07T09:14:22.147Z,-0.14
2022-12-07T09:16:48.744Z,-0.35
2022-12-07T09:19:15.529Z,-0.18
2022-12-07T09:21:42.151Z,-0.31
2022-12-07T09:24:10.104Z,-0.37
2022-12-07T09:26:36.731Z,-0.15
2022-12-07T09:29:04.146Z,-0.41
2022-12-07T09:31:30.942Z,-0.16
2022-12-07T09:33:59.777Z,-0.02
2022-12-07T09:36:27.411Z,-0.19
2022-12-07T09:38:54.123Z,-0.33
2022-12-07T09:41:21.943Z,-0.06
2022-12-07T09:43:48.644Z,0.06
2022-12-07T09:46:19.979Z,0.14
2022-12-07T09:48:47.911Z,-0.17
2022-12-07T09:51:23.787Z,0.01
2022-12-07T09:53:55.293Z,0.09
2022-12-07T09:56:23.622Z,0.12
2022-12-07T09:58:52.027Z,0.11
2022-12-07T10:01:20.991Z,-0.13
2022-12-07T10:03:59.949Z,0.13
2022-12-07T10:06:26.546Z,0.11
2022-12-07T10:08:55.803Z,0.15
2022-12-07T10:11:22.460Z,0.07
2022-12-07T10:13:54.869Z,0.12
2022-12-07T10:16:42.073Z,0.21
2022-12-07T10:19:32.878Z,0.21
2022-12-07T10:22:09.876Z,0.24
2022-12-07T10:24:38.362Z,0.25
2022-12-07T10:27:05.130Z,0.09
2022-12-07T10:29:38.371Z,0.26
2022-12-07T10:32:26.405Z,0.15
2022-12-07T10:35:19.841Z,0.13
2022-12-07T10:37:46.758Z,-0.11
2022-12-07T10:40:30.321Z,0.28
2022-12-07T10:43:06.298Z,0.26
2022-12-07T10:45:38.669Z,0.09
2022-12-07T10:48:17.935Z,0.26
2022-12-07T10:50:53.660Z,0.34
2022-12-07T10:53:26.631Z,0.27
2022-12-07T10:56:14.170Z,0.37
2022-12-07T10:58:59.504Z,0.36
2022-12-07T11:01:44.158Z,0.19
2022-12-07T11:04:16.717Z,0.37
2022-12-07T11:07:14.012Z,0.41
2022-12-07T11:10:08.453Z,0.45
2022-12-07T11:12:54.882Z,0.44
2022-12-07T11:15:41.548Z,0.47
2022-12-07T11:18:38.797Z,0.48
2022-12-07T11:21:23.699Z,0.56
2022-12-07T11:24:18.128Z,0.46
2022-12-07T11:27:15.296Z,0.56
2022-12-07T11:30:17.366Z,0.54
2022-12-07T11:33:22.939Z,0.63
2022-12-07T11:36:04.973Z,0.69
2022-12-07T11:38:47.052Z,0.61
2022-12-07T11:41:14.014Z,0.61
2022-12-07T11:44:08.928Z,0.64
2022-12-07T11:46:59.767Z,0.61
2022-12-07T11:49:41.512Z,0.69
2022-12-07T11:52:27.007Z,0.39
2022-12-07T11:54:54.750Z,0.74
2022-12-07T11:57:45.346Z,0.72
2022-12-07T12:00:18.902Z,0.46
2022-12-07T12:03:23.992Z,0.83
2022-12-07T12:05:50.974Z,0.56
2022-12-07T12:11:47.413Z,0.98
2022-12-07T12:14:48.457Z,1.05
2022-12-07T12:17:33.750Z,1.04
2022-12-07T12:20:03.261Z,1.08
2022-12-07T12:22:41.870Z,1.07
2022-12-07T12:25:21.043Z,1.04
2022-12-07T12:27:50.092Z,1.06
2022-12-07T12:30:38.523Z,1.22
2022-12-07T12:33:21.092Z,1.16
2022-12-07T12:36:18.565Z,1.05
2022-12-07T12:39:03.915Z,1.10
2022-12-07T12:41:40.228Z,1.12
2022-12-07T12:44:15.919Z,1.07
2022-12-07T12:46:55.873Z,1.01
2022-12-07T12:49:22.530Z,0.99
2022-12-07T12:51:53.223Z,0.87
2022-12-07T12:54:21.521Z,0.93
2022-12-07T12:57:00.352Z,0.99
2022-12-07T12:59:34.455Z,0.92
2022-12-07T13:02:34.925Z,0.84
2022-12-07T13:05:08.681Z,0.82
2022-12-07T13:07:53.917Z,0.83
2022-12-07T13:10:35.858Z,0.80
2022-12-07T13:13:20.809Z,0.75
2022-12-07T13:16:06.116Z,0.77
2022-12-07T13:18:32.693Z,0.82
2022-12-07T13:21:00.077Z,0.82
2022-12-07T13:23:45.614Z,0.89
2022-12-07T13:26:17.746Z,0.91
2022-12-07T13:28:50.750Z,0.95
2022-12-07T13:31:34.849Z,0.99
2022-12-07T13:34:03.800Z,0.97
2022-12-07T13:36:40.742Z,0.78
2022-12-07T13:39:21.277Z,0.94
2022-12-07T13:41:52.820Z,0.97
2022-12-07T13:44:20.732Z,1.02
2022-12-07T13:47:05.618Z,0.73
2022-12-07T13:49:39.081Z,0.78
2022-12-07T13:52:29.767Z,0.95
2022-12-07T13:55:03.742Z,0.88
2022-12-07T13:57:33.140Z,0.87
2022-12-07T14:00:00.099Z,0.79
2022-12-07T14:02:34.349Z,1.02
2022-12-07T14:05:27.503Z,0.97
2022-12-07T14:07:56.085Z,0.96
2022-12-07T14:10:35.150Z,0.57
2022-12-07T14:13:04.544Z,0.44
2022-12-07T14:15:35.846Z,0.63
2022-12-07T14:18:05.491Z,0.57
2022-12-07T14:20:37.560Z,0.48
2022-12-07T14:23:26.459Z,0.53
2022-12-07T14:25:54.591Z,0.28
2022-12-07T14:28:29.755Z,0.06
2022-12-07T14:30:56.540Z,-0.18
2022-12-07T14:33:25.038Z,-0.16
2022-12-07T14:35:56.068Z,-0.25
2022-12-07T14:38:23.270Z,-0.16
2022-12-07T14:40:50.257Z,-0.10
2022-12-07T14:43:21.203Z,0.01
2022-12-07T14:45:48.095Z,-0.25
2022-12-07T14:53:56.972Z,-0.03
2022-12-07T14:56:25.420Z,-0.22
2022-12-07T14:58:54.812Z,-0.13
2022-12-07T15:01:21.545Z,0.08
2022-12-07T15:03:48.315Z,-0.18
2022-12-07T15:06:17.944Z,0.13
2022-12-07T15:08:47.871Z,-0.10
2022-12-07T15:11:16.442Z,0.14
2022-12-07T15:14:01.589Z,0.04
2022-12-07T15:16:30.771Z,-0.17
2022-12-07T15:19:27.899Z,0.24
2022-12-07T15:21:56.074Z,0.24
2022-12-07T15:24:22.974Z,-0.04
2022-12-07T15:26:55.496Z,0.15
2022-12-07T15:29:28.750Z,0.11
2022-12-07T15:32:01.875Z,0.18
2022-12-07T15:34:40.043Z,0.27
2022-12-07T15:37:12.831Z,0.30
2022-12-07T15:39:48.500Z,0.31
2022-12-07T15:42:15.540Z,-0.01
2022-12-07T15:45:05.845Z,0.11
2022-12-07T15:48:10.393Z,0.26
2022-12-07T15:50:29.069Z,0.20
2022-12-07T15:53:11.467Z,0.31
2022-12-07T15:55:41.323Z,0.29
2022-12-07T15:58:14.640Z,0.28
2022-12-07T16:00:55.513Z,0.07
2022-12-07T16:03:22.309Z,0.28
2022-12-07T16:05:53.276Z,0.26
2022-12-07T16:08:20.638Z,0.26
2022-12-07T16:10:48.804Z,0.33
2022-12-07T16:13:15.466Z,0.20
2022-12-07T16:15:43.498Z,-0.14
2022-12-07T16:18:10.307Z,0.28
2022-12-07T16:20:36.984Z,0.30
2022-12-07T16:23:03.671Z,0.33
2022-12-07T16:25:33.665Z,0.32
2022-12-07T16:28:00.313Z,0.08
2022-12-07T16:30:26.907Z,0.14
2022-12-07T16:32:57.938Z,0.14
2022-12-07T16:35:27.583Z,0.00
2022-12-07T16:37:54.313Z,0.27
2022-12-07T16:40:21.028Z,0.16
2022-12-07T16:42:47.848Z,0.15
2022-12-07T16:45:19.282Z,0.14
2022-12-07T16:47:47.398Z,0.38
2022-12-07T16:50:14.087Z,0.25
2022-12-07T16:52:40.714Z,0.06
2022-12-07T16:55:07.848Z,0.25
2022-12-07T16:57:37.453Z,0.06
2022-12-07T17:00:05.229Z,0.08
2022-12-07T17:02:31.990Z,0.38
2022-12-07T17:04:58.869Z,0.31
2022-12-07T17:07:25.565Z,-0.22
2022-12-07T17:09:53.701Z,0.38
2022-12-07T17:12:20.427Z,0.36
2022-12-07T17:15:05.902Z,0.17
2022-12-07T17:17:33.300Z,0.29
2022-12-07T17:20:00.038Z,0.24
2022-12-07T17:22:26.791Z,0.19
2022-12-07T17:24:53.658Z,0.06
2022-12-07T17:27:20.504Z,0.36
2022-12-07T17:29:47.161Z,0.20
2022-12-07T17:32:13.887Z,0.21
2022-12-07T17:34:40.807Z,0.19
2022-12-07T17:37:09.487Z,0.30
2022-12-07T17:39:36.080Z,0.48
2022-12-07T17:42:21.444Z,0.25
2022-12-07T17:44:48.422Z,0.44
2022-12-07T17:47:17.003Z,0.45
2022-12-07T17:49:46.744Z,0.18
2022-12-07T17:52:31.949Z,0.29
2022-12-07T17:54:58.862Z,0.26
2022-12-07T17:57:25.681Z,0.22
2022-12-07T17:59:52.364Z,0.17
2022-12-07T18:02:19.089Z,0.46
2022-12-07T18:04:47.456Z,0.29
2022-12-07T18:07:14.399Z,0.34
2022-12-07T18:09:42.213Z,0.04
2022-12-07T18:12:09.910Z,0.00
2022-12-07T18:14:36.795Z,-0.05
2022-12-07T18:17:03.580Z,-0.05
2022-12-07T18:19:30.937Z,0.29
2022-12-07T18:21:57.653Z,0.27
2022-12-07T18:24:24.242Z,0.51
2022-12-07T18:26:51.441Z,0.53
2022-12-07T18:29:18.670Z,0.53
2022-12-07T18:31:49.300Z,0.60
2022-12-07T18:34:18.710Z,0.51
2022-12-07T18:36:47.352Z,0.53
2022-12-07T18:39:15.447Z,0.28
2022-12-07T18:41:42.554Z,0.43
2022-12-07T18:44:09.395Z,0.06
2022-12-07T18:46:36.993Z,0.54
2022-12-07T18:49:04.674Z,0.62
2022-12-07T18:51:32.676Z,0.44
2022-12-07T18:54:01.585Z,0.50
2022-12-07T18:56:29.287Z,0.48
2022-12-07T18:59:20.329Z,0.47
2022-12-07T19:01:50.340Z,0.48
2022-12-07T19:04:17.832Z,0.45
2022-12-07T19:06:46.702Z,0.49
2022-12-07T19:09:13.739Z,0.49
2022-12-07T19:11:49.852Z,0.46
2022-12-07T19:14:24.172Z,0.34
2022-12-07T19:16:53.927Z,0.58
2022-12-07T19:19:23.679Z,0.47
2022-12-07T19:21:50.922Z,0.39
2022-12-07T19:24:23.216Z,0.55
2022-12-07T19:26:51.030Z,0.27
2022-12-07T19:29:17.655Z,0.17
2022-12-07T19:31:44.697Z,0.40
2022-12-07T19:34:32.762Z,0.17
2022-12-07T19:36:59.961Z,0.33
2022-12-07T19:39:26.959Z,0.12
2022-12-07T19:41:53.892Z,0.24
2022-12-07T19:44:23.546Z,0.30
2022-12-07T19:46:55.688Z,0.12
2022-12-07T19:49:26.773Z,0.28
2022-12-07T19:51:57.031Z,0.10
2022-12-07T19:54:26.600Z,0.19
2022-12-07T19:56:53.828Z,0.21
2022-12-07T19:59:23.562Z,0.22
2022-12-07T20:01:51.056Z,0.21
2022-12-07T20:04:23.223Z,0.19
2022-12-07T20:06:52.587Z,0.16
2022-12-07T20:09:19.308Z,0.16
2022-12-07T20:12:04.913Z,0.14
2022-12-07T20:14:32.425Z,0.19
2022-12-07T20:16:59.763Z,-0.12
2022-12-07T20:19:26.787Z,0.19
2022-12-07T20:21:53.957Z,-0.01
2022-12-07T20:24:25.363Z,-0.10
2022-12-07T20:26:54.184Z,0.24
2022-12-07T20:29:25.227Z,0.13
2022-12-07T20:31:56.432Z,0.24
2022-12-07T20:34:23.151Z,0.04
2022-12-07T20:36:49.756Z,0.29
2022-12-07T20:39:16.952Z,0.37
2022-12-07T20:42:02.204Z,0.32
2022-12-07T20:44:29.436Z,0.42
2022-12-07T20:46:56.296Z,0.14
2022-12-07T20:49:23.379Z,0.33
2022-12-07T20:51:51.388Z,0.06
2022-12-07T20:54:18.226Z,0.44
2022-12-07T20:56:44.934Z,0.36
2022-12-07T20:59:14.464Z,0.23
2022-12-07T21:01:41.996Z,0.08
2022-12-07T21:04:13.168Z,0.29
2022-12-07T21:06:40.037Z,0.20
2022-12-07T21:09:07.405Z,0.10
2022-12-07T21:11:34.343Z,-0.26
2022-12-07T21:14:01.146Z,0.21
2022-12-07T21:16:31.371Z,0.16
2022-12-07T21:19:02.495Z,0.20
2022-12-07T21:21:31.345Z,-0.08
2022-12-07T21:24:02.382Z,0.04
2022-12-07T21:26:31.089Z,0.04
2022-12-07T21:28:57.866Z,0.40
2022-12-07T21:31:29.159Z,0.18
2022-12-07T21:33:56.316Z,0.06
2022-12-07T21:36:25.267Z,0.38
2022-12-07T21:38:52.432Z,0.11
2022-12-07T21:41:25.029Z,0.25
2022-12-07T21:43:52.659Z,0.36
2022-12-07T21:46:21.717Z,0.34
2022-12-07T21:48:54.227Z,0.10
2022-12-07T21:51:22.478Z,0.07
2022-12-07T21:53:51.620Z,0.08
2022-12-07T21:56:27.388Z,0.41
2022-12-07T21:58:59.061Z,0.22
2022-12-07T22:01:30.062Z,0.31
2022-12-07T22:03:56.895Z,0.17
2022-12-07T22:06:25.746Z,0.02
2022-12-07T22:08:53.409Z,0.23
2022-12-07T22:11:20.865Z,0.15
2022-12-07T22:14:10.706Z,-0.33
2022-12-07T22:16:39.218Z,0.24
2022-12-07T22:19:07.341Z,0.41
2022-12-07T22:21:34.849Z,0.35
2022-12-07T22:24:02.385Z,0.32
2022-12-07T22:26:29.080Z,-0.09
2022-12-07T22:28:55.860Z,0.35
2022-12-07T22:31:22.978Z,0.21
2022-12-07T22:33:50.642Z,0.40
2022-12-07T22:36:18.153Z,0.42
2022-12-07T22:38:45.867Z,0.22
2022-12-07T22:41:20.143Z,0.09
2022-12-07T22:43:46.830Z,0.10
2022-12-07T22:46:13.602Z,-0.05
2022-12-07T22:48:40.390Z,0.20
2022-12-07T22:51:07.190Z,0.19
2022-12-07T22:53:33.796Z,0.39
2022-12-07T22:56:00.389Z,0.17
2022-12-07T22:58:27.031Z,0.31
2022-12-07T23:00:54.014Z,0.47
2022-12-07T23:03:20.731Z,0.38
2022-12-07T23:05:49.446Z,0.44
2022-12-07T23:08:16.963Z,0.48
2022-12-07T23:10:46.381Z,0.43
2022-12-07T23:13:35.925Z,0.14
2022-12-07T23:16:14.887Z,0.45
2022-12-07T23:18:43.038Z,0.43
2022-12-07T23:21:09.939Z,0.28
2022-12-07T23:23:36.867Z,0.19
2022-12-07T23:26:11.274Z,0.20
2022-12-07T23:28:39.115Z,0.45
2022-12-07T23:31:13.017Z,0.37
2022-12-07T23:33:41.201Z,0.44
2022-12-07T23:36:12.532Z,0.36
2022-12-07T23:38:40.561Z,0.13
2022-12-07T23:41:09.138Z,0.12
2022-12-07T23:43:36.927Z,0.11
2022-12-07T23:46:07.255Z,0.21
2022-12-07T23:48:35.458Z,0.37
2022-12-07T23:51:02.432Z,0.42
2022-12-07T23:53:31.885Z,0.25
2022-12-07T23:55:58.648Z,0.33
2022-12-07T23:58:26.009Z,0.21
